Time;durP1;ratioP1;P1;durP2;ratioP2;P2;SDS_P1;SDS_P2;PMS_P1;PMS_P2;Temp;Humidity;BMP_temperature;BMP_pressure;BME280_temperature;BME280_humidity;BME280_pressure;Samples;Min_cycle;Max_cycle;Signal;HPM_P1;HPM_P2
2022/09/03 00:02:51;;;;;;;5.75;2.53;;;;;;;17.20;47.99;101042.75;4988292;28;20030;-83
2022/09/03 00:05:47;;;;;;;5.43;2.80;;;;;;;17.20;48.47;101042.75;4987763;28;20030;-83
2022/09/03 00:08:19;;;;;;;5.43;2.60;;;;;;;17.08;48.96;101039.66;4908777;29;20587;-80
2022/09/03 00:10:51;;;;;;;6.07;2.38;;;;;;;17.04;49.14;101030.50;4907198;29;20122;-84
2022/09/03 00:13:26;;;;;;;4.43;2.45;;;;;;;16.97;49.16;101035.56;4896917;29;20450;-82
2022/09/03 00:15:53;;;;;;;4.95;2.42;;;;;;;16.97;49.33;101035.56;4895116;29;20480;-83
2022/09/03 00:18:23;;;;;;;4.97;2.20;;;;;;;16.93;49.06;101034.25;4918005;29;20039;-82
2022/09/03 00:21:07;;;;;;;6.22;2.70;;;;;;;16.87;49.46;101034.88;4908026;29;20036;-83
2022/09/03 00:23:36;;;;;;;5.32;2.28;;;;;;;16.85;50.04;101036.81;4908659;29;20558;-83
2022/09/03 00:26:10;;;;;;;4.20;2.20;;;;;;;16.93;49.46;101029.00;4897191;29;20110;-83
2022/09/03 00:28:50;;;;;;;4.13;2.30;;;;;;;16.76;50.18;101032.56;4907461;29;20024;-83
2022/09/03 00:31:31;;;;;;;4.20;2.22;;;;;;;16.75;49.86;101030.94;4907876;29;20040;-82
2022/09/03 00:34:06;;;;;;;3.58;2.20;;;;;;;16.70;50.37;101027.94;4908121;29;20032;-83
2022/09/03 00:36:42;;;;;;;4.72;1.85;;;;;;;16.72;49.99;101031.25;4892315;29;20024;-83
2022/09/03 00:39:16;;;;;;;4.72;2.35;;;;;;;16.62;50.11;101033.13;4908731;29;20411;-82
2022/09/03 00:42:11;;;;;;;4.72;2.22;;;;;;;16.69;49.75;101036.78;4907938;29;20032;-83
2022/09/03 00:45:01;;;;;;;4.47;2.20;;;;;;;16.61;49.67;101028.88;4920512;28;20137;-82
2022/09/03 00:47:33;;;;;;;3.63;2.03;;;;;;;16.59;49.87;101030.84;4978738;28;20077;-82
2022/09/03 00:50:21;;;;;;;3.97;2.28;;;;;;;16.56;49.56;101020.69;4983307;28;20029;-80
2022/09/03 00:53:11;;;;;;;5.68;2.30;;;;;;;16.43;50.22;101032.44;4982778;28;20146;-85
2022/09/03 00:56:02;;;;;;;4.82;2.20;;;;;;;16.42;49.98;101030.78;4969444;28;20583;-82
2022/09/03 00:58:36;;;;;;;5.72;2.17;;;;;;;16.34;50.20;101022.88;4986422;28;20038;-82
2022/09/03 01:01:12;;;;;;;5.50;2.20;;;;;;;16.21;50.88;101027.75;4970308;28;20025;-84
2022/09/03 01:04:20;;;;;;;7.20;2.33;;;;;;;16.34;50.17;101022.88;4980168;28;20356;-83
2022/09/03 01:07:00;;;;;;;4.93;1.90;;;;;;;16.27;50.42;101032.34;4960105;28;20490;-84
2022/09/03 01:09:34;;;;;;;3.95;2.20;;;;;;;16.13;51.07;101030.34;4988116;28;20080;-83
2022/09/03 01:12:12;;;;;;;4.57;2.35;;;;;;;16.26;50.74;101030.72;4988838;28;20422;-83
2022/09/03 01:14:43;;;;;;;4.95;2.08;;;;;;;16.18;50.81;101025.47;4983297;28;20033;-85
2022/09/03 01:17:20;;;;;;;4.07;2.10;;;;;;;16.15;51.11;101023.16;4971618;28;20026;-85
2022/09/03 01:20:11;;;;;;;5.13;2.17;;;;;;;16.20;50.27;101031.34;4988880;28;20041;-85
2022/09/03 01:23:13;;;;;;;7.05;2.28;;;;;;;15.92;50.80;100996.72;4970581;28;20041;-83
2022/09/03 01:26:37;;;;;;;6.10;2.20;;;;;;;16.16;50.81;101030.00;4971114;28;20146;-83
2022/09/03 01:29:24;;;;;;;6.93;2.38;;;;;;;16.13;50.57;101035.59;4984910;28;20022;-81
2022/09/03 01:32:06;;;;;;;7.93;2.30;;;;;;;16.06;50.70;101035.38;4969276;28;20037;-82
2022/09/03 01:35:00;;;;;;;4.35;2.10;;;;;;;16.11;50.41;101032.28;4977468;28;20030;-83
2022/09/03 01:38:04;;;;;;;4.63;2.15;;;;;;;16.08;50.94;101037.84;4989546;28;20109;-83
2022/09/03 01:40:42;;;;;;;5.07;2.08;;;;;;;15.92;51.34;101023.69;4930205;29;20044;-81
2022/09/03 01:43:31;;;;;;;6.95;2.85;;;;;;;16.08;51.13;101032.59;4930706;28;20036;-82
2022/09/03 01:46:06;;;;;;;5.10;2.30;;;;;;;15.98;51.24;101031.88;4942689;29;20050;-83
2022/09/03 01:48:41;;;;;;;5.78;2.40;;;;;;;15.89;51.56;101034.47;4940553;29;20023;-83
2022/09/03 01:51:16;;;;;;;4.57;2.00;;;;;;;15.95;51.78;101026.97;4933898;29;20082;-82
2022/09/03 01:54:12;;;;;;;4.78;2.33;;;;;;;15.95;51.29;101038.25;4942790;29;20059;-84
2022/09/03 01:57:19;;;;;;;3.75;2.20;;;;;;;15.96;51.23;101034.66;4948537;29;20034;-84
2022/09/03 01:59:58;;;;;;;5.32;2.05;;;;;;;15.88;51.33;101026.75;4940384;29;20031;-84
2022/09/03 02:02:26;;;;;;;3.92;2.10;;;;;;;15.87;51.43;101023.31;4947600;29;20392;-83
2022/09/03 02:05:11;;;;;;;5.18;2.45;;;;;;;15.90;51.54;101020.41;4920706;29;20048;-80
2022/09/03 02:07:43;;;;;;;4.32;2.25;;;;;;;15.85;52.13;101027.91;4938381;29;20093;-84
2022/09/03 02:10:20;;;;;;;4.85;2.20;;;;;;;15.73;52.27;101034.38;4937075;29;20059;-81
2022/09/03 02:12:50;;;;;;;4.50;2.25;;;;;;;15.77;51.88;101040.94;4940587;29;20035;-84
2022/09/03 02:15:19;;;;;;;5.18;2.28;;;;;;;15.74;52.27;101030.78;4932491;29;20082;-83
2022/09/03 02:17:46;;;;;;;5.38;2.30;;;;;;;15.69;52.22;101027.78;4955923;28;20062;-83
2022/09/03 02:20:18;;;;;;;5.00;2.50;;;;;;;15.66;52.41;101021.09;4982955;28;20463;-84
2022/09/03 02:22:45;;;;;;;5.45;2.30;;;;;;;15.66;52.19;101013.25;4989829;28;20030;-84
2022/09/03 02:25:11;;;;;;;4.82;2.20;;;;;;;15.66;52.33;101017.66;4985195;28;20023;-82
2022/09/03 02:27:37;;;;;;;5.70;2.65;;;;;;;15.66;52.42;101020.28;4971153;28;20041;-84
2022/09/03 02:30:04;;;;;;;4.32;2.25;;;;;;;15.70;52.47;101028.59;4989261;28;20023;-83
2022/09/03 02:32:30;;;;;;;5.70;2.40;;;;;;;15.64;52.79;101024.81;4981197;28;20034;-83
2022/09/03 02:34:55;;;;;;;4.43;2.30;;;;;;;15.61;52.93;101015.47;4982834;28;20471;-84
2022/09/03 02:37:21;;;;;;;4.05;2.30;;;;;;;15.60;52.99;101026.91;4976379;28;20049;-82
2022/09/03 02:39:47;;;;;;;6.03;2.28;;;;;;;15.54;52.98;101013.59;4977476;28;20026;-83
2022/09/03 02:42:14;;;;;;;4.80;2.30;;;;;;;15.46;53.61;101024.81;4988654;28;20030;-82
2022/09/03 02:45:09;;;;;;;4.35;2.40;;;;;;;15.56;53.03;101025.56;4970278;28;20027;-83
2022/09/03 02:47:39;;;;;;;4.65;2.15;;;;;;;15.47;53.59;101017.78;4970003;28;20022;-81
2022/09/03 02:50:05;;;;;;;5.68;2.38;;;;;;;15.45;54.38;101024.97;4980881;28;20033;-83
2022/09/03 02:52:30;;;;;;;4.82;2.65;;;;;;;15.46;54.07;101016.16;4978908;28;20034;-83
2022/09/03 02:54:56;;;;;;;4.10;2.20;;;;;;;15.53;54.23;101017.19;4971559;28;20034;-83
2022/09/03 02:57:21;;;;;;;8.02;2.55;;;;;;;15.49;54.00;101011.47;4988355;28;20076;-83
2022/09/03 02:59:47;;;;;;;5.78;2.38;;;;;;;15.54;53.75;101013.59;4971453;28;20424;-83
2022/09/03 03:02:12;;;;;;;5.60;2.65;;;;;;;15.52;53.43;101016.38;4988911;28;20037;-84
2022/09/03 03:04:38;;;;;;;6.13;2.20;;;;;;;15.48;53.86;101008.97;4989282;28;20418;-80
2022/09/03 03:07:05;;;;;;;5.68;2.50;;;;;;;15.42;53.91;101005.19;4971711;28;20026;-83
2022/09/03 03:09:30;;;;;;;5.07;2.42;;;;;;;15.44;54.34;101007.66;4988687;28;20117;-83
2022/09/03 03:11:55;;;;;;;6.22;2.72;;;;;;;15.38;54.44;101004.69;4963461;28;20121;-84
2022/09/03 03:14:21;;;;;;;8.25;2.80;;;;;;;15.40;54.23;101013.19;4988407;28;20034;-85
2022/09/03 03:16:48;;;;;;;5.10;2.60;;;;;;;15.47;54.11;101012.56;4988351;28;20029;-84
2022/09/03 03:19:14;;;;;;;5.28;2.50;;;;;;;15.39;54.17;101015.94;4988813;28;20030;-82
2022/09/03 03:21:39;;;;;;;5.18;2.55;;;;;;;15.30;54.49;101011.63;4970529;28;20010;-84
2022/09/03 03:24:05;;;;;;;4.35;2.70;;;;;;;15.32;54.66;101009.69;4971695;28;20053;-83
2022/09/03 03:26:30;;;;;;;4.80;2.58;;;;;;;15.32;54.54;101005.28;4988424;28;20030;-83
2022/09/03 03:28:58;;;;;;;5.82;2.67;;;;;;;15.31;54.79;101014.09;4975786;28;20051;-83
2022/09/03 03:31:24;;;;;;;5.87;2.70;;;;;;;15.22;55.03;101003.72;4988946;28;20030;-83
2022/09/03 03:33:58;;;;;;;5.15;2.40;;;;;;;15.32;55.39;101009.69;4987951;28;20037;-83
2022/09/03 03:36:29;;;;;;;4.32;2.42;;;;;;;15.19;55.44;101007.44;4990016;28;20018;-85
2022/09/03 03:38:57;;;;;;;6.82;2.65;;;;;;;15.20;55.52;101003.88;4987931;28;20041;-85
2022/09/03 03:41:27;;;;;;;3.87;2.33;;;;;;;15.21;55.48;101013.38;4970751;28;20398;-84
2022/09/03 03:43:54;;;;;;;6.07;2.28;;;;;;;15.14;55.57;101007.09;4987037;28;20644;-84
2022/09/03 03:46:21;;;;;;;5.57;2.33;;;;;;;15.23;54.69;101010.59;4970751;28;20117;-83
2022/09/03 03:48:51;;;;;;;5.68;2.50;;;;;;;15.04;55.85;101016.81;4974785;28;20026;-83
2022/09/03 03:51:17;;;;;;;5.53;2.53;;;;;;;15.00;56.37;101011.03;4970200;28;20031;-83
2022/09/03 03:53:44;;;;;;;6.13;2.78;;;;;;;15.05;56.37;101005.38;4986434;28;20498;-82
2022/09/03 03:56:12;;;;;;;4.07;2.45;;;;;;;14.98;56.48;101007.78;4988064;28;20038;-83
2022/09/03 03:58:42;;;;;;;6.70;2.80;;;;;;;15.01;55.78;101006.63;4986586;28;20022;-83
2022/09/03 04:01:17;;;;;;;5.75;2.60;;;;;;;14.88;56.63;101007.00;4970136;28;20497;-82
2022/09/03 04:03:44;;;;;;;5.45;2.38;;;;;;;14.80;56.92;100999.94;4976354;28;20462;-83
2022/09/03 04:06:11;;;;;;;5.30;2.58;;;;;;;14.91;56.74;101005.88;4970540;28;20462;-83
2022/09/03 04:08:39;;;;;;;3.73;2.57;;;;;;;14.97;56.28;101013.97;4986599;28;20030;-82
2022/09/03 04:11:07;;;;;;;7.00;3.00;;;;;;;14.96;56.38;101008.88;4984522;28;20034;-83
2022/09/03 04:13:35;;;;;;;3.80;2.30;;;;;;;14.95;56.47;101017.69;4970268;28;20022;-83
2022/09/03 04:16:06;;;;;;;6.93;2.40;;;;;;;14.75;57.23;101012.59;4987926;28;20034;-82
2022/09/03 04:18:34;;;;;;;6.00;2.50;;;;;;;14.76;57.10;101009.03;4987566;28;20036;-81
2022/09/03 04:21:03;;;;;;;5.97;2.40;;;;;;;14.73;57.06;101009.31;4987267;28;20461;-82
2022/09/03 04:23:35;;;;;;;6.30;2.35;;;;;;;14.77;56.88;101000.22;4987576;28;20397;-83
2022/09/03 04:26:01;;;;;;;5.57;2.60;;;;;;;14.69;57.05;101000.16;4969173;28;20026;-83
2022/09/03 04:28:27;;;;;;;5.07;2.55;;;;;;;14.76;56.87;100998.56;4987429;28;20359;-80
2022/09/03 04:30:53;;;;;;;6.30;2.78;;;;;;;14.71;57.23;100994.78;4985239;28;20034;-83
2022/09/03 04:33:19;;;;;;;5.53;2.45;;;;;;;14.64;57.21;100991.94;4986728;28;20072;-82
2022/09/03 04:35:44;;;;;;;4.25;2.40;;;;;;;14.61;57.42;100994.81;4969991;28;20539;-83
2022/09/03 04:38:10;;;;;;;5.43;2.67;;;;;;;14.63;57.32;100997.31;4987564;28;20466;-84
2022/09/03 04:40:36;;;;;;;5.03;2.42;;;;;;;14.66;57.07;101003.03;4968224;28;20030;-85
2022/09/03 04:43:02;;;;;;;5.57;2.55;;;;;;;14.69;57.42;101000.16;4970213;28;20467;-83
2022/09/03 04:45:27;;;;;;;4.78;2.55;;;;;;;14.65;57.47;100988.34;4969340;28;20045;-80
2022/09/03 04:48:03;;;;;;;4.35;2.67;;;;;;;14.52;57.93;100985.28;4973765;28;20381;-83
2022/09/03 04:50:31;;;;;;;5.28;2.65;;;;;;;14.55;57.71;100987.59;4986324;28;20105;-85
2022/09/03 04:53:01;;;;;;;3.88;2.50;;;;;;;14.45;57.95;100984.16;4987399;28;20050;-83
2022/09/03 04:55:27;;;;;;;4.75;2.70;;;;;;;14.38;58.72;100983.13;4985359;28;20125;-80
2022/09/03 04:57:52;;;;;;;6.68;2.60;;;;;;;14.41;58.49;100982.84;4987019;28;20068;-83
2022/09/03 05:00:19;;;;;;;5.60;2.60;;;;;;;14.46;59.29;100996.28;4969587;28;20444;-82
2022/09/03 05:02:46;;;;;;;5.55;2.67;;;;;;;14.47;58.49;100998.75;4969747;28;20073;-83
2022/09/03 05:05:12;;;;;;;5.03;2.63;;;;;;;14.38;58.91;100998.78;4974402;28;20026;-82
2022/09/03 05:07:37;;;;;;;5.45;2.58;;;;;;;14.40;58.92;100996.88;4969529;28;20568;-83
2022/09/03 05:10:20;;;;;;;5.50;2.50;;;;;;;14.43;58.83;101007.00;4969597;28;20030;-83
2022/09/03 05:12:48;;;;;;;4.35;2.50;;;;;;;14.44;58.45;101000.81;4985597;28;20027;-83
2022/09/03 05:15:14;;;;;;;4.00;2.35;;;;;;;14.37;58.55;100999.75;4973305;28;20113;-82
2022/09/03 05:17:39;;;;;;;3.65;2.50;;;;;;;14.45;58.45;101002.44;4989136;28;20121;-83
2022/09/03 05:20:08;;;;;;;4.32;2.47;;;;;;;14.31;59.04;100998.53;4973102;28;20034;-83
2022/09/03 05:22:34;;;;;;;5.45;2.63;;;;;;;14.40;58.63;101008.13;4990986;28;20075;-81
2022/09/03 05:25:00;;;;;;;4.20;2.38;;;;;;;14.34;59.08;101003.47;4989026;28;20026;-84
2022/09/03 05:27:26;;;;;;;5.45;2.55;;;;;;;14.35;58.94;101000.72;4989784;28;20076;-84
2022/09/03 05:29:51;;;;;;;7.45;2.90;;;;;;;14.24;59.28;101007.91;4989290;28;20022;-83
2022/09/03 05:32:16;;;;;;;4.18;2.50;;;;;;;14.23;59.28;101001.88;4969293;28;20034;-83
2022/09/03 05:34:42;;;;;;;4.93;2.55;;;;;;;14.28;58.88;101001.47;4974399;28;20026;-84
2022/09/03 05:37:08;;;;;;;5.65;2.42;;;;;;;14.30;58.62;101000.34;4970625;28;20077;-80
2022/09/03 05:39:34;;;;;;;5.53;2.53;;;;;;;14.33;58.79;101000.03;4972533;28;20402;-83
2022/09/03 05:41:59;;;;;;;4.30;2.40;;;;;;;14.30;58.78;101018.59;4975275;28;20058;-84
2022/09/03 05:44:24;;;;;;;6.60;2.47;;;;;;;14.40;58.49;101002.09;4988515;28;20070;-81
2022/09/03 05:46:50;;;;;;;6.43;2.60;;;;;;;14.43;58.66;101007.00;4983905;28;20026;-84
2022/09/03 05:49:16;;;;;;;4.47;2.60;;;;;;;14.29;59.19;101001.31;4988153;28;20466;-84
2022/09/03 05:51:42;;;;;;;4.78;2.58;;;;;;;14.39;58.87;101016.06;4982999;28;20062;-84
2022/09/03 05:54:09;;;;;;;5.18;2.55;;;;;;;14.46;58.40;101009.31;4988546;28;20054;-84
2022/09/03 05:56:36;;;;;;;4.55;2.55;;;;;;;14.38;59.01;101009.22;4985895;28;20040;-81
2022/09/03 05:59:08;;;;;;;7.30;2.70;;;;;;;14.43;59.17;101007.00;4985686;28;20394;-83
2022/09/03 06:01:45;;;;;;;6.25;2.60;;;;;;;14.45;59.03;101015.50;4962643;28;20207;-82
2022/09/03 06:04:15;;;;;;;6.20;2.60;;;;;;;14.41;59.46;101008.94;4980780;28;20081;-83
2022/09/03 06:06:43;;;;;;;5.55;2.70;;;;;;;14.46;59.63;101011.94;4979284;28;20022;-84
2022/09/03 06:09:17;;;;;;;5.55;2.33;;;;;;;14.48;59.39;101010.03;4967561;28;20038;-81
2022/09/03 06:11:43;;;;;;;4.75;2.50;;;;;;;14.52;59.30;101008.78;4971928;28;20154;-85
2022/09/03 06:14:11;;;;;;;4.00;2.47;;;;;;;14.59;59.05;101012.44;4983462;28;20038;-84
2022/09/03 06:16:39;;;;;;;4.72;2.42;;;;;;;14.63;59.06;101002.53;4971730;28;20030;-83
2022/09/03 06:19:12;;;;;;;6.25;2.40;;;;;;;14.75;58.57;101004.78;4990348;28;20027;-83
2022/09/03 06:21:41;;;;;;;4.05;2.55;;;;;;;14.77;58.85;101010.66;4966750;28;20019;-82
2022/09/03 06:24:09;;;;;;;5.55;2.65;;;;;;;14.83;58.93;101014.47;4982116;28;20037;-79
2022/09/03 06:26:34;;;;;;;4.72;2.33;;;;;;;14.80;59.12;101005.16;4970372;28;20109;-83
2022/09/03 06:28:59;;;;;;;4.25;2.60;;;;;;;14.96;58.28;101003.66;4971797;28;20038;-83
2022/09/03 06:31:25;;;;;;;4.40;2.30;;;;;;;15.03;58.47;101010.75;4970437;28;20030;-84
2022/09/03 06:33:53;;;;;;;6.15;2.33;;;;;;;15.05;58.15;101018.44;4965938;28;20471;-83
2022/09/03 06:36:20;;;;;;;4.13;2.27;;;;;;;15.08;57.92;101012.91;4970833;28;20023;-83
2022/09/03 06:38:46;;;;;;;5.85;2.50;;;;;;;15.17;58.50;101012.00;4969234;28;20265;-83
2022/09/03 06:41:17;;;;;;;3.90;2.30;;;;;;;15.29;57.59;101020.44;4977188;28;20026;-83
2022/09/03 06:43:44;;;;;;;6.63;2.38;;;;;;;15.33;57.96;101017.38;4971109;28;20058;-81
2022/09/03 06:46:13;;;;;;;4.05;2.35;;;;;;;15.45;57.43;101014.53;4971604;28;20405;-84
2022/09/03 06:48:39;;;;;;;;;;;;;;;15.55;56.79;101021.31;4973211;28;20786;-84
2022/09/03 06:51:13;;;;;;;4.47;2.40;;;;;;;15.60;57.42;101018.25;4985064;28;19920;-79
2022/09/03 06:53:41;;;;;;;4.47;2.38;;;;;;;15.70;56.92;101020.75;4985053;28;20054;-79
2022/09/03 06:56:09;;;;;;;5.65;2.20;;;;;;;15.79;56.65;101020.66;4968923;28;20044;-81
2022/09/03 06:58:42;;;;;;;3.05;1.90;;;;;;;15.87;56.49;101014.66;4985095;28;20523;-79
2022/09/03 07:01:17;;;;;;;4.95;2.17;;;;;;;15.99;55.81;101016.03;4982230;28;20029;-83
2022/09/03 07:03:44;;;;;;;4.35;2.03;;;;;;;16.05;55.34;101009.34;4959578;28;20018;-80
2022/09/03 07:06:12;;;;;;;5.70;1.98;;;;;;;16.13;55.07;101009.41;4981383;28;20455;-82
2022/09/03 07:08:38;;;;;;;4.05;1.80;;;;;;;16.26;54.96;101014.19;4987109;28;20112;-81
2022/09/03 07:11:12;;;;;;;4.95;2.05;;;;;;;16.29;55.49;101012.09;4985620;28;20113;-82
2022/09/03 07:13:40;;;;;;;3.60;2.00;;;;;;;16.44;55.07;101018.34;4982196;28;20056;-82
2022/09/03 07:16:09;;;;;;;7.63;2.00;;;;;;;16.54;55.17;101017.41;4971595;28;20026;-81
2022/09/03 07:18:34;;;;;;;;;;;;;;;16.66;55.38;101021.38;4971706;28;20061;-79
2022/09/03 07:21:02;;;;;;;4.18;2.10;;;;;;;16.87;53.46;101021.78;4977102;28;19957;-82
2022/09/03 07:23:28;;;;;;;5.55;1.98;;;;;;;16.96;52.88;101017.34;4969896;28;20031;-81
2022/09/03 07:25:56;;;;;;;4.68;1.70;;;;;;;17.17;52.35;101020.34;4985595;28;20811;-81
2022/09/03 07:28:22;;;;;;;8.15;2.10;;;;;;;17.23;51.89;101006.56;4988270;28;20118;-83
2022/09/03 07:30:47;;;;;;;4.57;2.03;;;;;;;17.34;51.17;101015.91;4976308;28;20210;-79
2022/09/03 07:33:12;;;;;;;4.03;1.92;;;;;;;17.48;51.03;101017.84;4970198;28;20554;-81
2022/09/03 07:35:38;;;;;;;5.15;1.80;;;;;;;17.63;50.32;101014.56;4967819;28;20363;-81
2022/09/03 07:38:03;;;;;;;3.92;1.77;;;;;;;17.71;50.66;101018.00;4958450;28;20034;-79
2022/09/03 07:40:28;;;;;;;4.10;1.70;;;;;;;17.83;50.52;101026.34;4979746;28;20045;-80
2022/09/03 07:43:03;;;;;;;5.13;1.90;;;;;;;17.94;50.04;101023.38;4969361;28;20026;-81
2022/09/03 07:45:30;;;;;;;2.97;1.67;;;;;;;18.04;49.48;101016.13;4953092;28;20033;-80
2022/09/03 07:47:55;;;;;;;5.18;1.88;;;;;;;18.17;49.08;101020.84;4973006;28;20258;-82
2022/09/03 07:50:21;;;;;;;4.00;1.83;;;;;;;18.23;48.60;101019.34;4968010;28;20113;-81
2022/09/03 07:52:47;;;;;;;4.50;1.80;;;;;;;18.27;48.18;101023.28;4968631;28;20051;-83
2022/09/03 07:55:12;;;;;;;4.85;1.58;;;;;;;18.37;47.94;101023.06;4983138;28;20705;-81
2022/09/03 07:57:38;;;;;;;5.72;1.80;;;;;;;18.48;48.19;101026.13;4977122;28;20117;-82
2022/09/03 08:00:07;;;;;;;3.85;1.70;;;;;;;18.41;47.66;101004.19;4988089;28;20085;-83
2022/09/03 08:02:32;;;;;;;9.02;2.20;;;;;;;18.61;47.25;101019.50;4970246;28;20026;-81
2022/09/03 08:04:58;;;;;;;6.30;1.60;;;;;;;18.65;47.66;101021.63;4984325;28;20046;-80
2022/09/03 08:07:23;;;;;;;4.30;1.67;;;;;;;18.69;47.42;101014.22;4984411;28;20071;-82
2022/09/03 08:09:48;;;;;;;7.93;2.17;;;;;;;18.79;46.98;101017.44;4980453;28;20286;-86
2022/09/03 08:12:14;;;;;;;3.40;1.80;;;;;;;18.90;47.00;101024.94;4987889;28;20073;-82
2022/09/03 08:14:39;;;;;;;4.57;1.70;;;;;;;18.98;47.05;101022.25;4969956;28;20033;-80
2022/09/03 08:17:06;;;;;;;3.28;1.60;;;;;;;19.06;47.46;101019.56;4979643;28;20033;-83
2022/09/03 08:19:31;;;;;;;4.75;1.83;;;;;;;19.13;47.15;101024.13;4987388;28;20030;-81
2022/09/03 08:21:56;;;;;;;2.83;1.60;;;;;;;19.17;46.30;101020.97;4982732;28;20073;-82
2022/09/03 08:24:24;;;;;;;5.75;1.90;;;;;;;19.29;46.83;101029.25;4987673;28;20029;-83
2022/09/03 08:26:49;;;;;;;4.60;1.75;;;;;;;19.32;46.66;101034.13;4969929;28;20541;-82
2022/09/03 08:29:15;;;;;;;4.35;1.80;;;;;;;19.40;46.31;101031.47;4986978;28;20197;-83
2022/09/03 08:31:40;;;;;;;5.57;1.83;;;;;;;19.41;46.23;101027.81;4983345;28;20069;-84
2022/09/03 08:34:06;;;;;;;5.70;1.75;;;;;;;19.47;45.98;101031.56;4977395;28;20039;-82
2022/09/03 08:36:34;;;;;;;5.07;1.88;;;;;;;19.50;46.26;101021.50;4983623;28;20023;-82
2022/09/03 08:39:08;;;;;;;4.47;1.88;;;;;;;19.57;45.70;101038.22;4986766;28;20405;-82
2022/09/03 08:41:45;;;;;;;5.05;1.90;;;;;;;19.60;45.29;101037.88;4967836;28;20053;-83
2022/09/03 08:44:38;;;;;;;6.03;1.77;;;;;;;19.70;45.90;101042.06;4982231;28;20030;-81
2022/09/03 08:47:09;;;;;;;5.93;2.05;;;;;;;19.82;46.03;101045.88;4972321;28;20093;-83
2022/09/03 08:49:58;;;;;;;5.40;1.77;;;;;;;19.84;46.00;101038.63;4974157;28;20026;-82
2022/09/03 08:53:06;;;;;;;3.05;1.77;;;;;;;19.87;45.82;101038.28;4978259;28;20085;-82
2022/09/03 08:55:43;;;;;;;8.07;2.28;;;;;;;19.91;45.28;101034.28;4907674;29;20040;-82
2022/09/03 08:58:10;;;;;;;3.15;1.80;;;;;;;19.97;45.39;101030.13;4890261;29;20060;-83
2022/09/03 09:00:51;;;;;;;4.57;1.77;;;;;;;20.10;45.29;101033.72;4889005;29;20036;-84
2022/09/03 09:03:44;;;;;;;5.60;1.92;;;;;;;20.15;45.18;101034.00;4905932;29;20080;-82
2022/09/03 09:06:32;;;;;;;4.75;2.28;;;;;;;20.21;44.68;101029.81;4898265;29;20039;-83
2022/09/03 09:09:09;;;;;;;5.67;2.03;;;;;;;20.46;44.50;101033.00;4901353;29;20054;-83
2022/09/03 09:11:52;;;;;;;3.57;1.73;;;;;;;20.47;44.47;101033.81;4900624;29;20301;-81
2022/09/03 09:14:21;;;;;;;3.85;1.80;;;;;;;20.53;44.31;101033.91;4895193;29;20280;-84
2022/09/03 09:16:55;;;;;;;4.03;1.60;;;;;;;20.64;44.55;101041.31;4900012;29;20036;-82
2022/09/03 09:19:35;;;;;;;4.22;1.65;;;;;;;20.74;43.94;101040.19;4890027;29;20024;-82
2022/09/03 09:22:03;;;;;;;6.05;1.77;;;;;;;20.88;43.86;101032.25;4908531;29;20032;-83
2022/09/03 09:24:40;;;;;;;;;;;;;;;20.99;44.83;101038.00;4899501;29;20044;-83
2022/09/03 09:27:06;;;;;;;5.03;2.17;;;;;;;21.02;42.62;101035.81;4883076;29;20009;-83
2022/09/03 09:29:35;;;;;;;4.65;1.80;;;;;;;21.11;42.26;101037.34;4905411;29;20047;-83
2022/09/03 09:32:03;;;;;;;3.80;1.70;;;;;;;21.21;42.78;101037.00;4939800;28;20034;-83
2022/09/03 09:34:34;;;;;;;4.70;1.77;;;;;;;21.27;43.01;101035.41;4971255;28;20038;-82
2022/09/03 09:37:04;;;;;;;5.25;1.90;;;;;;;21.38;43.19;101037.56;4971551;28;20525;-84
2022/09/03 09:39:30;;;;;;;5.95;2.05;;;;;;;21.37;42.54;101041.22;4976871;28;20116;-83
2022/09/03 09:42:04;;;;;;;6.22;2.00;;;;;;;21.44;41.61;101039.44;4990260;28;20122;-82
2022/09/03 09:44:30;;;;;;;6.53;1.95;;;;;;;21.48;41.62;101030.97;4988586;28;20026;-83
2022/09/03 09:47:15;;;;;;;6.95;1.80;;;;;;;21.59;42.42;101024.34;4990012;28;20084;-83
2022/09/03 09:49:52;;;;;;;5.40;1.80;;;;;;;21.71;41.53;101030.72;4969778;28;20059;-82
2022/09/03 09:52:20;;;;;;;5.95;2.00;;;;;;;21.82;41.70;101033.84;4983784;28;20064;-82
2022/09/03 09:54:46;;;;;;;;;;;;;;;21.95;42.55;101033.91;4970266;28;20096;-84
2022/09/03 09:57:20;;;;;;;6.47;1.90;;;;;;;21.95;40.70;101033.91;4969514;28;19913;-83
2022/09/03 09:59:45;;;;;;;5.28;1.70;;;;;;;22.10;40.81;101037.28;4987816;28;20284;-83
2022/09/03 10:02:14;;;;;;;5.60;1.98;;;;;;;22.05;40.36;101034.38;4989350;28;20049;-83
2022/09/03 10:04:44;;;;;;;6.15;1.90;;;;;;;22.18;40.23;101029.19;4977680;28;20489;-86
2022/09/03 10:07:30;;;;;;;7.78;2.00;;;;;;;22.29;41.23;101029.63;4969200;28;20031;-83
2022/09/03 10:10:01;;;;;;;5.25;1.80;;;;;;;22.32;40.47;101031.91;4974083;28;20029;-83
2022/09/03 10:12:49;;;;;;;4.18;1.83;;;;;;;22.47;40.84;101029.91;4978267;28;20023;-83
2022/09/03 10:15:18;;;;;;;;;;;;;;;22.61;41.19;101031.59;4988337;28;20034;-84
2022/09/03 10:17:54;;;;;;;5.30;1.65;;;;;;;22.72;40.20;101031.00;4987999;28;19921;-81
2022/09/03 10:20:46;;;;;;;6.93;1.90;;;;;;;22.88;39.32;101031.66;4976522;28;20444;-84
2022/09/03 10:23:38;;;;;;;3.90;1.75;;;;;;;22.97;39.89;101022.53;4947207;28;20041;-82
2022/09/03 10:26:13;;;;;;;3.88;1.70;;;;;;;23.04;38.99;101023.34;4982617;28;20030;-84
2022/09/03 10:28:40;;;;;;;4.50;1.75;;;;;;;22.97;38.53;101025.19;4986435;28;20109;-85
2022/09/03 10:31:16;;;;;;;6.32;1.90;;;;;;;23.30;39.33;101022.56;4981421;28;20035;-85
2022/09/03 10:33:48;;;;;;;5.45;1.83;;;;;;;23.22;37.77;101028.03;4988602;28;20529;-84
2022/09/03 10:36:44;;;;;;;5.95;1.83;;;;;;;23.37;38.72;101025.19;4986380;28;20129;-84
2022/09/03 10:39:18;;;;;;;6.00;1.73;;;;;;;23.59;38.22;101018.66;4984108;28;20058;-83
2022/09/03 10:41:58;;;;;;;3.95;1.67;;;;;;;23.66;38.25;101024.78;4981823;28;20390;-84
2022/09/03 10:44:45;;;;;;;6.45;2.00;;;;;;;23.72;38.53;101021.31;4976557;28;20410;-83
2022/09/03 10:47:29;;;;;;;9.80;4.23;;;;;;;23.74;37.75;101024.59;4988876;28;20065;-83
2022/09/03 10:50:14;;;;;;;11.05;5.70;;;;;;;23.66;37.81;101016.84;4989638;28;20456;-85
2022/09/03 10:53:17;;;;;;;5.80;3.08;;;;;;;23.78;38.14;101025.78;4976842;28;20038;-85
2022/09/03 10:55:55;;;;;;;4.15;2.00;;;;;;;23.76;37.68;101019.88;4970822;28;20113;-85
2022/09/03 10:58:51;;;;;;;5.40;1.90;;;;;;;23.91;37.66;101029.41;4970977;28;20123;-82
2022/09/03 11:01:26;;;;;;;6.90;2.00;;;;;;;24.18;37.35;101025.66;4982246;28;20037;-82
2022/09/03 11:03:58;;;;;;;5.15;1.90;;;;;;;24.11;36.72;101030.19;4978731;28;20038;-86
2022/09/03 11:06:27;;;;;;;6.40;1.88;;;;;;;24.07;37.39;101013.88;4988006;28;20359;-85
2022/09/03 11:09:20;;;;;;;6.65;2.00;;;;;;;24.17;37.54;101018.72;4971215;28;20057;-85
2022/09/03 11:11:52;;;;;;;3.42;1.90;;;;;;;24.49;36.33;101022.31;4982870;28;20465;-84
2022/09/03 11:14:30;;;;;;;4.05;1.88;;;;;;;24.55;36.56;101010.03;4980164;28;20034;-82
2022/09/03 11:17:07;;;;;;;5.25;2.10;;;;;;;24.65;36.99;101010.34;4974665;28;20066;-83
2022/09/03 11:19:42;;;;;;;6.77;2.10;;;;;;;24.67;36.47;101016.28;4981871;28;20120;-82
2022/09/03 11:22:10;;;;;;;4.65;2.10;;;;;;;24.92;36.30;101010.19;4988392;28;20038;-85
2022/09/03 11:24:39;;;;;;;5.28;1.88;;;;;;;24.92;35.84;101004.88;4976978;28;20475;-85
2022/09/03 11:27:10;;;;;;;4.78;2.10;;;;;;;24.77;35.87;101008.66;4977116;28;20038;-85
2022/09/03 11:30:08;;;;;;;5.38;1.92;;;;;;;25.04;36.33;101008.47;4970086;28;20019;-84
2022/09/03 11:32:53;;;;;;;4.63;1.90;;;;;;;25.00;35.66;101001.97;4977286;28;20148;-85
2022/09/03 11:35:30;;;;;;;6.47;2.25;;;;;;;25.01;36.05;100996.44;4969985;28;20049;-85
2022/09/03 11:38:02;;;;;;;5.63;2.30;;;;;;;25.07;36.08;101002.78;4974546;28;20037;-86
2022/09/03 11:40:32;;;;;;;5.35;2.10;;;;;;;25.20;36.02;101000.00;4968576;28;20031;-85
2022/09/03 11:43:06;;;;;;;3.95;2.17;;;;;;;25.21;35.75;100988.34;4973001;28;20023;-84
2022/09/03 11:45:31;;;;;;;6.38;2.10;;;;;;;25.30;35.68;100995.00;4970868;28;20085;-84
2022/09/03 11:47:58;;;;;;;4.32;2.00;;;;;;;25.32;35.37;100986.81;4969767;28;20482;-84
2022/09/03 11:50:25;;;;;;;5.75;2.15;;;;;;;25.51;35.18;100992.97;4969403;28;20085;-84
2022/09/03 11:53:06;;;;;;;4.38;2.30;;;;;;;25.52;35.90;100994.59;4985957;28;20053;-87